Mitsukawa Maru — JD2495 — position and weather

sailwx.info

Track history (hours):
 
Tides and Currents Weather Stations Pressure Air Temp Water Temp Dewpoint Dewpoint Depression Visibility Wind Speed Wind Dir Waves Ship Positions

Mitsukawa Maru

Last reported at 2018-Jan-18 15:20 UTC. Time now 2018-Jan-19 05:50 UTC.
Position N 33°51' E 134°52'.

Length 105 m; draft 4.2 m.

Type: Ship (hazmat cat A). MMSI: 431000326.

Date/timePositionNaut miles runAvg speedWind from/ knotsBaromVisibWave heightAir tempDewpointWater temp
2018-Jan-18 15:20N 33°51' E 134°52'514.1
2018-Jan-18 15:00N 33°55' E 134°53'714.3
2018-Jan-18 14:30N 34°02' E 134°55'714.2
2018-Jan-18 14:01N 34°09' E 134°57'714.1
2018-Jan-18 13:30N 34°16' E 134°58'713.4
2018-Jan-18 13:00N 34°22' E 134°60'613.0
2018-Jan-18 12:31N 34°29' E 135°01'612.5
2018-Jan-18 12:01N 34°35' E 135°03'4 8.7
2018-Jan-18 11:30N 34°36' E 134°58'612.5
2018-Jan-18 11:00N 34°34' E 134°51'613.1
2018-Jan-18 10:31N 34°31' E 134°44'713.5
2018-Jan-18 10:01N 34°29' E 134°36'713.7
2018-Jan-18 09:30N 34°26' E 134°28'713.7
2018-Jan-18 09:00N 34°24' E 134°20'713.7
2018-Jan-18 08:30N 34°24' E 134°12'  
2018-Jan-12 06:43N 33°50' E 134°52'314.0
2018-Jan-12 06:30N 33°53' E 134°53'713.8
2018-Jan-12 06:00N 33°60' E 134°54'713.6
2018-Jan-12 05:30N 34°06' E 134°56'713.7
2018-Jan-12 05:01N 34°13' E 134°58'714.2
2018-Jan-12 04:30N 34°20' E 134°60'714.0
2018-Jan-12 04:01N 34°27' E 135°02'713.7
2018-Jan-12 03:30N 34°33' E 135°03'611.6
2018-Jan-12 03:01N 34°36' E 134°57'714.9
2018-Jan-12 02:31N 34°33' E 134°49'714.1
2018-Jan-12 02:00N 34°30' E 134°41'714.0
2018-Jan-12 01:30N 34°28' E 134°33'713.9
2018-Jan-12 01:00N 34°25' E 134°25'713.7
2018-Jan-12 00:31N 34°24' E 134°17'714.3
2018-Jan-11 23:59N 34°26' E 134°08'72 4.0
2018-Jan-11 05:59N 34°01' E 132°46'612.5
2018-Jan-11 05:30N 33°56' E 132°42'712.6
2018-Jan-11 04:56N 33°51' E 132°35'712.5
2018-Jan-11 04:22N 33°47' E 132°29'812.6
2018-Jan-11 03:45N 33°43' E 132°21'2211.6
2018-Jan-11 01:49N 33°26' E 132°04'411.8
2018-Jan-11 01:29N 33°23' E 132°01'4 8.9
2018-Jan-11 01:00N 33°19' E 132°00'711.2
2018-Jan-11 00:25N 33°12' E 131°58'3 0.5
2018-Jan-10 18:10N 33°10' E 131°57'413.6
2018-Jan-10 17:53N 33°13' E 131°58'512.4
2018-Jan-10 17:27N 33°19' E 131°58'612.1
2018-Jan-10 16:59N 33°24' E 131°58'1112.4
2018-Jan-10 16:05N 33°34' E 132°04'812.1
2018-Jan-10 15:27N 33°37' E 132°12'612.3
2018-Jan-10 14:58N 33°40' E 132°19'612.7
2018-Jan-10 14:30N 33°44' E 132°24'713.3
2018-Jan-10 14:00N 33°48' E 132°30'713.6
2018-Jan-10 13:29N 33°53' E 132°36'713.9
2018-Jan-10 13:00N 33°57' E 132°43'10 0.4
2018-Jan-09 15:17N 34°06' E 132°49'512.6
2018-Jan-09 14:54N 34°01' E 132°46'512.4
2018-Jan-09 14:30N 33°57' E 132°43'612.1
2018-Jan-09 14:00N 33°53' E 132°37'612.1
2018-Jan-09 13:31N 33°49' E 132°32'612.1
2018-Jan-09 12:59N 33°44' E 132°27'612.2
2018-Jan-09 12:30N 33°40' E 132°22'1911.7
2018-Jan-09 10:53N 33°27' E 132°05'411.2
2018-Jan-09 10:29N 33°24' E 132°02'5 9.9
2018-Jan-09 10:00N 33°20' E 131°60'5 9.8
2018-Jan-09 09:30N 33°15' E 131°59'6 1.0
2018-Jan-09 03:35N 33°09' E 131°56'213.5
2018-Jan-09 03:28N 33°11' E 131°57'612.9
2018-Jan-09 02:58N 33°17' E 131°59'612.0
2018-Jan-09 02:30N 33°22' E 132°01'1810.8
2018-Jan-09 00:48N 33°37' E 132°15'510.5
2018-Jan-09 00:21N 33°40' E 132°19'411.3
2018-Jan-09 00:00N 33°43' E 132°23'812.3
2018-Jan-08 23:21N 33°48' E 132°30'613.4
2018-Jan-08 22:55N 33°52' E 132°35'613.6
2018-Jan-08 22:31N 33°56' E 132°40'713.7
2018-Jan-08 21:59N 34°01' E 132°45'1312.1
2018-Jan-08 20:55N 34°10' E 132°57'  
Track history (hours):
 
Tides and Currents Weather Stations Pressure Air Temp Water Temp Dewpoint Dewpoint Depression Visibility Wind Speed Wind Dir Waves Ship Positions

Mitsukawa Maru

Last reported at 2018-Jan-18 15:20 UTC. Time now 2018-Jan-19 05:50 UTC.
Position N 33°51' E 134°52'.

Length 105 m; draft 4.2 m.

Type: Ship (hazmat cat A). MMSI: 431000326.

Date/timePositionNaut miles runAvg speedWind from/ knotsBaromVisibWave heightAir tempDewpointWater temp
2018-Jan-18 15:20N 33°51' E 134°52'514.1
2018-Jan-18 15:00N 33°55' E 134°53'714.3
2018-Jan-18 14:30N 34°02' E 134°55'714.2
2018-Jan-18 14:01N 34°09' E 134°57'714.1
2018-Jan-18 13:30N 34°16' E 134°58'713.4
2018-Jan-18 13:00N 34°22' E 134°60'613.0
2018-Jan-18 12:31N 34°29' E 135°01'612.5
2018-Jan-18 12:01N 34°35' E 135°03'4 8.7
2018-Jan-18 11:30N 34°36' E 134°58'612.5
2018-Jan-18 11:00N 34°34' E 134°51'613.1
2018-Jan-18 10:31N 34°31' E 134°44'713.5
2018-Jan-18 10:01N 34°29' E 134°36'713.7
2018-Jan-18 09:30N 34°26' E 134°28'713.7
2018-Jan-18 09:00N 34°24' E 134°20'713.7
2018-Jan-18 08:30N 34°24' E 134°12'  
2018-Jan-12 06:43N 33°50' E 134°52'314.0
2018-Jan-12 06:30N 33°53' E 134°53'713.8
2018-Jan-12 06:00N 33°60' E 134°54'713.6
2018-Jan-12 05:30N 34°06' E 134°56'713.7
2018-Jan-12 05:01N 34°13' E 134°58'714.2
2018-Jan-12 04:30N 34°20' E 134°60'714.0
2018-Jan-12 04:01N 34°27' E 135°02'713.7
2018-Jan-12 03:30N 34°33' E 135°03'611.6
2018-Jan-12 03:01N 34°36' E 134°57'714.9
2018-Jan-12 02:31N 34°33' E 134°49'714.1
2018-Jan-12 02:00N 34°30' E 134°41'714.0
2018-Jan-12 01:30N 34°28' E 134°33'713.9
2018-Jan-12 01:00N 34°25' E 134°25'713.7
2018-Jan-12 00:31N 34°24' E 134°17'714.3
2018-Jan-11 23:59N 34°26' E 134°08'72 4.0
2018-Jan-11 05:59N 34°01' E 132°46'612.5
2018-Jan-11 05:30N 33°56' E 132°42'712.6
2018-Jan-11 04:56N 33°51' E 132°35'712.5
2018-Jan-11 04:22N 33°47' E 132°29'812.6
2018-Jan-11 03:45N 33°43' E 132°21'2211.6
2018-Jan-11 01:49N 33°26' E 132°04'411.8
2018-Jan-11 01:29N 33°23' E 132°01'4 8.9
2018-Jan-11 01:00N 33°19' E 132°00'711.2
2018-Jan-11 00:25N 33°12' E 131°58'3 0.5
2018-Jan-10 18:10N 33°10' E 131°57'413.6
2018-Jan-10 17:53N 33°13' E 131°58'512.4
2018-Jan-10 17:27N 33°19' E 131°58'612.1
2018-Jan-10 16:59N 33°24' E 131°58'1112.4
2018-Jan-10 16:05N 33°34' E 132°04'812.1
2018-Jan-10 15:27N 33°37' E 132°12'612.3
2018-Jan-10 14:58N 33°40' E 132°19'612.7
2018-Jan-10 14:30N 33°44' E 132°24'713.3
2018-Jan-10 14:00N 33°48' E 132°30'713.6
2018-Jan-10 13:29N 33°53' E 132°36'713.9
2018-Jan-10 13:00N 33°57' E 132°43'10 0.4
2018-Jan-09 15:17N 34°06' E 132°49'512.6
2018-Jan-09 14:54N 34°01' E 132°46'512.4
2018-Jan-09 14:30N 33°57' E 132°43'612.1
2018-Jan-09 14:00N 33°53' E 132°37'612.1
2018-Jan-09 13:31N 33°49' E 132°32'612.1
2018-Jan-09 12:59N 33°44' E 132°27'612.2
2018-Jan-09 12:30N 33°40' E 132°22'1911.7
2018-Jan-09 10:53N 33°27' E 132°05'411.2
2018-Jan-09 10:29N 33°24' E 132°02'5 9.9
2018-Jan-09 10:00N 33°20' E 131°60'5 9.8
2018-Jan-09 09:30N 33°15' E 131°59'6 1.0
2018-Jan-09 03:35N 33°09' E 131°56'213.5
2018-Jan-09 03:28N 33°11' E 131°57'612.9
2018-Jan-09 02:58N 33°17' E 131°59'612.0
2018-Jan-09 02:30N 33°22' E 132°01'1810.8
2018-Jan-09 00:48N 33°37' E 132°15'510.5
2018-Jan-09 00:21N 33°40' E 132°19'411.3
2018-Jan-09 00:00N 33°43' E 132°23'812.3
2018-Jan-08 23:21N 33°48' E 132°30'613.4
2018-Jan-08 22:55N 33°52' E 132°35'613.6
2018-Jan-08 22:31N 33°56' E 132°40'713.7
2018-Jan-08 21:59N 34°01' E 132°45'1312.1
2018-Jan-08 20:55N 34°10' E 132°57'  

Dump ship's entire track history